sensor_id;sensor_type;location;lat;lon;timestamp;P1;durP1;ratioP1;P2;durP2;ratioP2
18146;SDS011;9199;48.832;9.182;2023-05-10T00:01:47;2.38;;;0.70;;
18146;SDS011;9199;48.832;9.182;2023-05-10T00:04:13;1.08;;;0.60;;
18146;SDS011;9199;48.832;9.182;2023-05-10T00:06:40;3.08;;;0.60;;
18146;SDS011;9199;48.832;9.182;2023-05-10T00:09:08;1.17;;;0.50;;
18146;SDS011;9199;48.832;9.182;2023-05-10T00:11:35;1.77;;;0.50;;
18146;SDS011;9199;48.832;9.182;2023-05-10T00:14:02;0.75;;;0.40;;
18146;SDS011;9199;48.832;9.182;2023-05-10T00:16:29;1.10;;;0.50;;
18146;SDS011;9199;48.832;9.182;2023-05-10T00:18:55;4.55;;;0.55;;
18146;SDS011;9199;48.832;9.182;2023-05-10T00:21:22;1.20;;;0.50;;
18146;SDS011;9199;48.832;9.182;2023-05-10T00:23:49;1.13;;;0.50;;
18146;SDS011;9199;48.832;9.182;2023-05-10T00:26:17;1.67;;;0.60;;
18146;SDS011;9199;48.832;9.182;2023-05-10T00:28:43;3.70;;;0.70;;
18146;SDS011;9199;48.832;9.182;2023-05-10T00:31:10;2.88;;;0.68;;
18146;SDS011;9199;48.832;9.182;2023-05-10T00:33:37;2.35;;;0.73;;
18146;SDS011;9199;48.832;9.182;2023-05-10T00:36:04;3.23;;;0.50;;
18146;SDS011;9199;48.832;9.182;2023-05-10T00:38:32;1.83;;;0.50;;
18146;SDS011;9199;48.832;9.182;2023-05-10T00:40:59;1.17;;;0.57;;
18146;SDS011;9199;48.832;9.182;2023-05-10T00:43:27;1.13;;;0.55;;
18146;SDS011;9199;48.832;9.182;2023-05-10T00:45:54;1.52;;;0.50;;
18146;SDS011;9199;48.832;9.182;2023-05-10T00:48:21;2.80;;;0.50;;
18146;SDS011;9199;48.832;9.182;2023-05-10T00:50:48;1.25;;;0.60;;
18146;SDS011;9199;48.832;9.182;2023-05-10T00:53:15;1.58;;;0.50;;
18146;SDS011;9199;48.832;9.182;2023-05-10T00:55:42;1.00;;;0.60;;
18146;SDS011;9199;48.832;9.182;2023-05-10T00:58:09;1.10;;;0.50;;
18146;SDS011;9199;48.832;9.182;2023-05-10T01:00:37;0.90;;;0.40;;
18146;SDS011;9199;48.832;9.182;2023-05-10T01:03:07;1.20;;;0.52;;
18146;SDS011;9199;48.832;9.182;2023-05-10T01:05:34;1.70;;;0.50;;
18146;SDS011;9199;48.832;9.182;2023-05-10T01:08:01;2.42;;;0.43;;
18146;SDS011;9199;48.832;9.182;2023-05-10T01:10:28;1.20;;;0.60;;
18146;SDS011;9199;48.832;9.182;2023-05-10T01:12:55;1.00;;;0.50;;
18146;SDS011;9199;48.832;9.182;2023-05-10T01:15:22;3.20;;;0.50;;
18146;SDS011;9199;48.832;9.182;2023-05-10T01:17:50;1.38;;;0.60;;
18146;SDS011;9199;48.832;9.182;2023-05-10T01:20:18;0.98;;;0.50;;
18146;SDS011;9199;48.832;9.182;2023-05-10T01:22:50;1.30;;;0.60;;
18146;SDS011;9199;48.832;9.182;2023-05-10T01:25:49;1.53;;;0.50;;
18146;SDS011;9199;48.832;9.182;2023-05-10T01:28:38;1.30;;;0.63;;
18146;SDS011;9199;48.832;9.182;2023-05-10T01:31:22;1.50;;;0.80;;
18146;SDS011;9199;48.832;9.182;2023-05-10T01:34:01;2.13;;;0.60;;
18146;SDS011;9199;48.832;9.182;2023-05-10T01:36:35;1.23;;;0.70;;
18146;SDS011;9199;48.832;9.182;2023-05-10T01:39:09;1.50;;;0.60;;
18146;SDS011;9199;48.832;9.182;2023-05-10T01:41:55;1.38;;;0.70;;
18146;SDS011;9199;48.832;9.182;2023-05-10T01:44:29;1.50;;;0.85;;
18146;SDS011;9199;48.832;9.182;2023-05-10T01:47:04;1.50;;;0.80;;
18146;SDS011;9199;48.832;9.182;2023-05-10T01:49:36;1.90;;;0.80;;
18146;SDS011;9199;48.832;9.182;2023-05-10T01:52:08;1.53;;;0.80;;
18146;SDS011;9199;48.832;9.182;2023-05-10T01:54:38;1.58;;;0.90;;
18146;SDS011;9199;48.832;9.182;2023-05-10T01:57:07;1.65;;;0.70;;
18146;SDS011;9199;48.832;9.182;2023-05-10T01:59:37;1.40;;;0.70;;
18146;SDS011;9199;48.832;9.182;2023-05-10T02:02:06;1.75;;;0.80;;
18146;SDS011;9199;48.832;9.182;2023-05-10T02:04:38;3.27;;;0.80;;
18146;SDS011;9199;48.832;9.182;2023-05-10T02:07:06;2.13;;;1.00;;
18146;SDS011;9199;48.832;9.182;2023-05-10T02:09:34;2.08;;;1.10;;
18146;SDS011;9199;48.832;9.182;2023-05-10T02:12:02;2.15;;;0.90;;
18146;SDS011;9199;48.832;9.182;2023-05-10T02:14:32;2.83;;;0.80;;
18146;SDS011;9199;48.832;9.182;2023-05-10T02:17:02;3.57;;;1.07;;
18146;SDS011;9199;48.832;9.182;2023-05-10T02:19:32;2.67;;;1.00;;
18146;SDS011;9199;48.832;9.182;2023-05-10T02:22:01;4.03;;;1.02;;
18146;SDS011;9199;48.832;9.182;2023-05-10T02:24:29;2.38;;;1.00;;
18146;SDS011;9199;48.832;9.182;2023-05-10T02:26:57;1.73;;;0.80;;
18146;SDS011;9199;48.832;9.182;2023-05-10T02:29:25;1.40;;;0.87;;
18146;SDS011;9199;48.832;9.182;2023-05-10T02:31:54;1.65;;;0.85;;
18146;SDS011;9199;48.832;9.182;2023-05-10T02:34:22;2.33;;;0.70;;
18146;SDS011;9199;48.832;9.182;2023-05-10T02:36:51;1.45;;;0.70;;
18146;SDS011;9199;48.832;9.182;2023-05-10T02:39:20;1.65;;;0.80;;
18146;SDS011;9199;48.832;9.182;2023-05-10T02:41:48;2.10;;;0.90;;
18146;SDS011;9199;48.832;9.182;2023-05-10T02:44:17;2.38;;;1.00;;
18146;SDS011;9199;48.832;9.182;2023-05-10T02:46:45;2.88;;;1.15;;
18146;SDS011;9199;48.832;9.182;2023-05-10T02:49:12;2.28;;;1.10;;
18146;SDS011;9199;48.832;9.182;2023-05-10T02:51:40;2.15;;;0.95;;
18146;SDS011;9199;48.832;9.182;2023-05-10T02:54:10;3.27;;;1.00;;
18146;SDS011;9199;48.832;9.182;2023-05-10T02:56:42;2.40;;;1.10;;
18146;SDS011;9199;48.832;9.182;2023-05-10T02:59:13;2.33;;;1.20;;
18146;SDS011;9199;48.832;9.182;2023-05-10T03:01:40;2.90;;;1.27;;
18146;SDS011;9199;48.832;9.182;2023-05-10T03:04:07;6.43;;;1.63;;
18146;SDS011;9199;48.832;9.182;2023-05-10T03:06:34;3.87;;;1.90;;
18146;SDS011;9199;48.832;9.182;2023-05-10T03:09:01;4.28;;;1.95;;
18146;SDS011;9199;48.832;9.182;2023-05-10T03:11:32;5.68;;;2.90;;
18146;SDS011;9199;48.832;9.182;2023-05-10T03:14:16;6.15;;;3.30;;
18146;SDS011;9199;48.832;9.182;2023-05-10T03:17:10;7.93;;;5.63;;
18146;SDS011;9199;48.832;9.182;2023-05-10T03:19:52;9.03;;;5.53;;
18146;SDS011;9199;48.832;9.182;2023-05-10T03:22:22;9.60;;;5.90;;
18146;SDS011;9199;48.832;9.182;2023-05-10T03:24:51;7.93;;;5.88;;
18146;SDS011;9199;48.832;9.182;2023-05-10T03:27:23;7.78;;;4.15;;
18146;SDS011;9199;48.832;9.182;2023-05-10T03:29:52;6.97;;;3.90;;
18146;SDS011;9199;48.832;9.182;2023-05-10T03:32:19;5.67;;;3.20;;
18146;SDS011;9199;48.832;9.182;2023-05-10T03:34:46;4.60;;;2.70;;
18146;SDS011;9199;48.832;9.182;2023-05-10T03:37:12;4.82;;;2.53;;
18146;SDS011;9199;48.832;9.182;2023-05-10T03:39:39;4.85;;;1.60;;
18146;SDS011;9199;48.832;9.182;2023-05-10T03:42:06;3.97;;;1.60;;
18146;SDS011;9199;48.832;9.182;2023-05-10T03:44:34;3.47;;;1.60;;
18146;SDS011;9199;48.832;9.182;2023-05-10T03:47:00;3.25;;;1.45;;
18146;SDS011;9199;48.832;9.182;2023-05-10T03:49:27;3.78;;;1.40;;
18146;SDS011;9199;48.832;9.182;2023-05-10T03:51:54;4.07;;;1.50;;
18146;SDS011;9199;48.832;9.182;2023-05-10T03:54:20;3.38;;;1.20;;
18146;SDS011;9199;48.832;9.182;2023-05-10T03:56:47;3.83;;;1.37;;
18146;SDS011;9199;48.832;9.182;2023-05-10T03:59:14;3.28;;;1.60;;
18146;SDS011;9199;48.832;9.182;2023-05-10T04:01:42;5.63;;;1.30;;
18146;SDS011;9199;48.832;9.182;2023-05-10T04:04:08;3.08;;;1.27;;
18146;SDS011;9199;48.832;9.182;2023-05-10T04:06:35;3.28;;;1.50;;
18146;SDS011;9199;48.832;9.182;2023-05-10T04:09:02;4.40;;;1.40;;
18146;SDS011;9199;48.832;9.182;2023-05-10T04:11:29;2.42;;;1.20;;
18146;SDS011;9199;48.832;9.182;2023-05-10T04:13:56;4.00;;;1.33;;
18146;SDS011;9199;48.832;9.182;2023-05-10T04:16:23;3.13;;;1.25;;
18146;SDS011;9199;48.832;9.182;2023-05-10T04:18:51;4.53;;;1.50;;
18146;SDS011;9199;48.832;9.182;2023-05-10T04:21:17;3.63;;;1.47;;
18146;SDS011;9199;48.832;9.182;2023-05-10T04:23:44;3.60;;;1.42;;
18146;SDS011;9199;48.832;9.182;2023-05-10T04:26:11;2.88;;;1.23;;
18146;SDS011;9199;48.832;9.182;2023-05-10T04:28:38;3.00;;;1.20;;
18146;SDS011;9199;48.832;9.182;2023-05-10T04:31:05;3.22;;;1.17;;
18146;SDS011;9199;48.832;9.182;2023-05-10T04:33:33;2.83;;;0.80;;
18146;SDS011;9199;48.832;9.182;2023-05-10T04:36:01;3.33;;;1.02;;
18146;SDS011;9199;48.832;9.182;2023-05-10T04:38:29;2.80;;;1.00;;
18146;SDS011;9199;48.832;9.182;2023-05-10T04:41:03;2.58;;;1.00;;
18146;SDS011;9199;48.832;9.182;2023-05-10T04:43:30;2.90;;;1.10;;
18146;SDS011;9199;48.832;9.182;2023-05-10T04:45:57;3.13;;;1.03;;
18146;SDS011;9199;48.832;9.182;2023-05-10T04:48:23;3.03;;;0.90;;
18146;SDS011;9199;48.832;9.182;2023-05-10T04:50:50;3.00;;;1.02;;
18146;SDS011;9199;48.832;9.182;2023-05-10T04:53:18;3.80;;;1.33;;
18146;SDS011;9199;48.832;9.182;2023-05-10T04:55:45;3.22;;;1.10;;
18146;SDS011;9199;48.832;9.182;2023-05-10T04:58:12;3.70;;;1.17;;
18146;SDS011;9199;48.832;9.182;2023-05-10T05:00:39;2.47;;;0.90;;
18146;SDS011;9199;48.832;9.182;2023-05-10T05:03:06;4.15;;;1.15;;
18146;SDS011;9199;48.832;9.182;2023-05-10T05:05:33;2.55;;;1.10;;
18146;SDS011;9199;48.832;9.182;2023-05-10T05:08:00;3.22;;;1.00;;
18146;SDS011;9199;48.832;9.182;2023-05-10T05:10:27;2.60;;;0.80;;
18146;SDS011;9199;48.832;9.182;2023-05-10T05:12:54;2.53;;;1.00;;
18146;SDS011;9199;48.832;9.182;2023-05-10T05:15:21;2.25;;;1.00;;
18146;SDS011;9199;48.832;9.182;2023-05-10T05:17:48;3.42;;;1.02;;
18146;SDS011;9199;48.832;9.182;2023-05-10T05:20:15;4.35;;;1.13;;
18146;SDS011;9199;48.832;9.182;2023-05-10T05:22:42;2.30;;;1.00;;
18146;SDS011;9199;48.832;9.182;2023-05-10T05:25:08;3.35;;;1.20;;
18146;SDS011;9199;48.832;9.182;2023-05-10T05:27:37;3.03;;;1.10;;
18146;SDS011;9199;48.832;9.182;2023-05-10T05:30:05;2.53;;;1.00;;
18146;SDS011;9199;48.832;9.182;2023-05-10T05:32:32;1.67;;;0.90;;
18146;SDS011;9199;48.832;9.182;2023-05-10T05:34:59;2.07;;;0.93;;
18146;SDS011;9199;48.832;9.182;2023-05-10T05:37:26;1.80;;;0.90;;
18146;SDS011;9199;48.832;9.182;2023-05-10T05:39:52;1.92;;;0.80;;
18146;SDS011;9199;48.832;9.182;2023-05-10T05:42:19;2.40;;;1.00;;
18146;SDS011;9199;48.832;9.182;2023-05-10T05:44:47;1.95;;;1.00;;
18146;SDS011;9199;48.832;9.182;2023-05-10T05:47:14;1.97;;;0.83;;
18146;SDS011;9199;48.832;9.182;2023-05-10T05:49:41;3.53;;;0.75;;
18146;SDS011;9199;48.832;9.182;2023-05-10T05:52:10;2.42;;;0.85;;
18146;SDS011;9199;48.832;9.182;2023-05-10T05:54:37;3.50;;;0.90;;
18146;SDS011;9199;48.832;9.182;2023-05-10T05:57:04;3.83;;;0.98;;
18146;SDS011;9199;48.832;9.182;2023-05-10T05:59:30;2.00;;;0.90;;
18146;SDS011;9199;48.832;9.182;2023-05-10T06:01:58;3.25;;;0.90;;
18146;SDS011;9199;48.832;9.182;2023-05-10T06:04:25;2.92;;;1.20;;
18146;SDS011;9199;48.832;9.182;2023-05-10T06:06:52;5.88;;;1.05;;
18146;SDS011;9199;48.832;9.182;2023-05-10T06:09:19;2.00;;;1.00;;
18146;SDS011;9199;48.832;9.182;2023-05-10T06:11:46;2.37;;;1.10;;
18146;SDS011;9199;48.832;9.182;2023-05-10T06:14:12;2.85;;;1.30;;
18146;SDS011;9199;48.832;9.182;2023-05-10T06:16:39;2.42;;;1.20;;
18146;SDS011;9199;48.832;9.182;2023-05-10T06:19:07;3.10;;;1.13;;
18146;SDS011;9199;48.832;9.182;2023-05-10T06:21:34;2.92;;;1.20;;
18146;SDS011;9199;48.832;9.182;2023-05-10T06:24:01;3.40;;;1.27;;
18146;SDS011;9199;48.832;9.182;2023-05-10T06:26:28;2.70;;;0.90;;
18146;SDS011;9199;48.832;9.182;2023-05-10T06:28:55;4.35;;;1.40;;
18146;SDS011;9199;48.832;9.182;2023-05-10T06:31:21;3.28;;;1.00;;
18146;SDS011;9199;48.832;9.182;2023-05-10T06:33:48;3.00;;;1.23;;
18146;SDS011;9199;48.832;9.182;2023-05-10T06:36:16;3.00;;;1.20;;
18146;SDS011;9199;48.832;9.182;2023-05-10T06:38:42;3.13;;;1.30;;
18146;SDS011;9199;48.832;9.182;2023-05-10T06:41:09;4.18;;;1.40;;
18146;SDS011;9199;48.832;9.182;2023-05-10T06:43:36;2.95;;;1.40;;
18146;SDS011;9199;48.832;9.182;2023-05-10T06:46:04;3.72;;;1.30;;
18146;SDS011;9199;48.832;9.182;2023-05-10T06:48:31;2.70;;;1.30;;
18146;SDS011;9199;48.832;9.182;2023-05-10T06:50:58;3.47;;;1.38;;
18146;SDS011;9199;48.832;9.182;2023-05-10T06:53:27;4.03;;;1.30;;
18146;SDS011;9199;48.832;9.182;2023-05-10T06:55:53;2.83;;;1.00;;
18146;SDS011;9199;48.832;9.182;2023-05-10T06:58:20;3.20;;;1.27;;
18146;SDS011;9199;48.832;9.182;2023-05-10T07:00:47;3.30;;;1.33;;
18146;SDS011;9199;48.832;9.182;2023-05-10T07:03:13;4.20;;;1.40;;
18146;SDS011;9199;48.832;9.182;2023-05-10T07:05:40;2.50;;;1.20;;
18146;SDS011;9199;48.832;9.182;2023-05-10T07:08:07;2.97;;;1.30;;
18146;SDS011;9199;48.832;9.182;2023-05-10T07:10:35;3.03;;;1.10;;
18146;SDS011;9199;48.832;9.182;2023-05-10T07:13:02;3.87;;;1.20;;
18146;SDS011;9199;48.832;9.182;2023-05-10T07:15:29;2.40;;;1.17;;
18146;SDS011;9199;48.832;9.182;2023-05-10T07:17:56;4.05;;;1.20;;
18146;SDS011;9199;48.832;9.182;2023-05-10T07:20:22;4.18;;;1.20;;
18146;SDS011;9199;48.832;9.182;2023-05-10T07:22:49;2.35;;;1.10;;
18146;SDS011;9199;48.832;9.182;2023-05-10T07:25:15;3.17;;;1.13;;
18146;SDS011;9199;48.832;9.182;2023-05-10T07:27:44;2.55;;;1.00;;
18146;SDS011;9199;48.832;9.182;2023-05-10T07:30:11;2.95;;;0.93;;
18146;SDS011;9199;48.832;9.182;2023-05-10T07:32:38;2.92;;;1.15;;
18146;SDS011;9199;48.832;9.182;2023-05-10T07:35:07;2.17;;;1.13;;
18146;SDS011;9199;48.832;9.182;2023-05-10T07:37:34;2.63;;;1.20;;
18146;SDS011;9199;48.832;9.182;2023-05-10T07:40:01;3.90;;;1.00;;
18146;SDS011;9199;48.832;9.182;2023-05-10T07:42:27;4.13;;;0.98;;
18146;SDS011;9199;48.832;9.182;2023-05-10T07:44:55;4.38;;;1.00;;
18146;SDS011;9199;48.832;9.182;2023-05-10T07:47:22;2.63;;;0.90;;
18146;SDS011;9199;48.832;9.182;2023-05-10T07:49:49;2.73;;;0.90;;
18146;SDS011;9199;48.832;9.182;2023-05-10T07:52:16;2.47;;;0.80;;
18146;SDS011;9199;48.832;9.182;2023-05-10T07:54:42;3.13;;;1.00;;
18146;SDS011;9199;48.832;9.182;2023-05-10T07:57:09;2.75;;;0.90;;
18146;SDS011;9199;48.832;9.182;2023-05-10T07:59:36;2.53;;;1.00;;
18146;SDS011;9199;48.832;9.182;2023-05-10T08:02:04;5.57;;;1.00;;
18146;SDS011;9199;48.832;9.182;2023-05-10T08:04:30;3.28;;;1.10;;
18146;SDS011;9199;48.832;9.182;2023-05-10T08:06:57;5.03;;;0.80;;
18146;SDS011;9199;48.832;9.182;2023-05-10T08:09:24;1.98;;;0.70;;
18146;SDS011;9199;48.832;9.182;2023-05-10T08:11:50;2.05;;;1.00;;
18146;SDS011;9199;48.832;9.182;2023-05-10T08:14:17;2.50;;;0.90;;
18146;SDS011;9199;48.832;9.182;2023-05-10T08:16:44;2.13;;;0.68;;
18146;SDS011;9199;48.832;9.182;2023-05-10T08:19:12;4.75;;;0.80;;
18146;SDS011;9199;48.832;9.182;2023-05-10T08:21:39;2.90;;;0.63;;
18146;SDS011;9199;48.832;9.182;2023-05-10T08:24:07;3.50;;;0.90;;
18146;SDS011;9199;48.832;9.182;2023-05-10T08:26:34;2.47;;;0.80;;
18146;SDS011;9199;48.832;9.182;2023-05-10T08:29:00;2.65;;;0.88;;
18146;SDS011;9199;48.832;9.182;2023-05-10T08:31:27;3.28;;;0.80;;
18146;SDS011;9199;48.832;9.182;2023-05-10T08:33:53;2.40;;;0.90;;
18146;SDS011;9199;48.832;9.182;2023-05-10T08:36:21;1.88;;;0.73;;
18146;SDS011;9199;48.832;9.182;2023-05-10T08:38:49;1.50;;;0.50;;
18146;SDS011;9199;48.832;9.182;2023-05-10T08:41:17;2.13;;;0.50;;
18146;SDS011;9199;48.832;9.182;2023-05-10T08:43:45;1.80;;;0.70;;
18146;SDS011;9199;48.832;9.182;2023-05-10T08:46:13;3.67;;;0.70;;
18146;SDS011;9199;48.832;9.182;2023-05-10T08:48:43;1.92;;;0.50;;
18146;SDS011;9199;48.832;9.182;2023-05-10T08:51:11;2.50;;;0.67;;
18146;SDS011;9199;48.832;9.182;2023-05-10T08:53:41;2.00;;;0.60;;
18146;SDS011;9199;48.832;9.182;2023-05-10T08:56:08;1.60;;;0.70;;
18146;SDS011;9199;48.832;9.182;2023-05-10T08:58:34;3.03;;;0.77;;
18146;SDS011;9199;48.832;9.182;2023-05-10T09:01:01;1.52;;;0.50;;
18146;SDS011;9199;48.832;9.182;2023-05-10T09:03:29;2.27;;;0.70;;
18146;SDS011;9199;48.832;9.182;2023-05-10T09:05:56;1.85;;;0.80;;
18146;SDS011;9199;48.832;9.182;2023-05-10T09:08:23;2.40;;;0.60;;
18146;SDS011;9199;48.832;9.182;2023-05-10T09:10:52;1.52;;;0.50;;
18146;SDS011;9199;48.832;9.182;2023-05-10T09:13:20;1.83;;;0.57;;
18146;SDS011;9199;48.832;9.182;2023-05-10T09:15:48;1.37;;;0.57;;
18146;SDS011;9199;48.832;9.182;2023-05-10T09:18:15;3.00;;;0.60;;
18146;SDS011;9199;48.832;9.182;2023-05-10T09:20:41;1.80;;;0.60;;
18146;SDS011;9199;48.832;9.182;2023-05-10T09:23:08;1.50;;;0.50;;
18146;SDS011;9199;48.832;9.182;2023-05-10T09:25:35;1.23;;;0.50;;
18146;SDS011;9199;48.832;9.182;2023-05-10T09:28:06;2.30;;;0.60;;
18146;SDS011;9199;48.832;9.182;2023-05-10T09:30:34;1.77;;;0.57;;
18146;SDS011;9199;48.832;9.182;2023-05-10T09:33:01;1.60;;;0.60;;
18146;SDS011;9199;48.832;9.182;2023-05-10T09:35:28;2.47;;;0.60;;
18146;SDS011;9199;48.832;9.182;2023-05-10T09:37:57;1.60;;;0.60;;
18146;SDS011;9199;48.832;9.182;2023-05-10T09:40:25;1.50;;;0.50;;
18146;SDS011;9199;48.832;9.182;2023-05-10T09:42:54;1.02;;;0.43;;
18146;SDS011;9199;48.832;9.182;2023-05-10T09:45:26;1.17;;;0.50;;
18146;SDS011;9199;48.832;9.182;2023-05-10T09:47:53;2.75;;;0.80;;
18146;SDS011;9199;48.832;9.182;2023-05-10T09:50:21;1.08;;;0.40;;
18146;SDS011;9199;48.832;9.182;2023-05-10T09:52:48;1.33;;;0.60;;
18146;SDS011;9199;48.832;9.182;2023-05-10T09:55:17;1.52;;;0.57;;
18146;SDS011;9199;48.832;9.182;2023-05-10T09:57:45;1.95;;;0.60;;
18146;SDS011;9199;48.832;9.182;2023-05-10T10:00:16;2.78;;;0.70;;
18146;SDS011;9199;48.832;9.182;2023-05-10T10:02:46;2.60;;;0.60;;
18146;SDS011;9199;48.832;9.182;2023-05-10T10:05:14;3.87;;;0.83;;
18146;SDS011;9199;48.832;9.182;2023-05-10T10:07:41;2.22;;;0.90;;
18146;SDS011;9199;48.832;9.182;2023-05-10T10:10:08;2.38;;;0.70;;
18146;SDS011;9199;48.832;9.182;2023-05-10T10:12:37;4.60;;;0.77;;
18146;SDS011;9199;48.832;9.182;2023-05-10T10:15:06;1.25;;;0.50;;
18146;SDS011;9199;48.832;9.182;2023-05-10T10:17:33;2.53;;;0.60;;
18146;SDS011;9199;48.832;9.182;2023-05-10T10:20:04;1.60;;;0.60;;
18146;SDS011;9199;48.832;9.182;2023-05-10T10:22:31;3.00;;;0.52;;
18146;SDS011;9199;48.832;9.182;2023-05-10T10:24:58;2.40;;;0.77;;
18146;SDS011;9199;48.832;9.182;2023-05-10T10:27:26;2.13;;;0.60;;
18146;SDS011;9199;48.832;9.182;2023-05-10T10:30:02;2.00;;;0.70;;
18146;SDS011;9199;48.832;9.182;2023-05-10T10:32:38;1.88;;;0.60;;
18146;SDS011;9199;48.832;9.182;2023-05-10T10:35:15;3.10;;;1.00;;
18146;SDS011;9199;48.832;9.182;2023-05-10T10:37:43;3.63;;;0.85;;
18146;SDS011;9199;48.832;9.182;2023-05-10T10:40:23;3.42;;;0.90;;
18146;SDS011;9199;48.832;9.182;2023-05-10T10:42:51;2.40;;;0.97;;
18146;SDS011;9199;48.832;9.182;2023-05-10T10:45:19;2.05;;;0.68;;
18146;SDS011;9199;48.832;9.182;2023-05-10T10:47:46;2.92;;;0.77;;
18146;SDS011;9199;48.832;9.182;2023-05-10T10:50:13;2.13;;;0.60;;
18146;SDS011;9199;48.832;9.182;2023-05-10T10:52:42;1.90;;;0.50;;
18146;SDS011;9199;48.832;9.182;2023-05-10T10:55:10;1.23;;;0.50;;
18146;SDS011;9199;48.832;9.182;2023-05-10T10:57:45;2.67;;;0.63;;
18146;SDS011;9199;48.832;9.182;2023-05-10T11:03:06;1.83;;;0.60;;
18146;SDS011;9199;48.832;9.182;2023-05-10T11:05:37;2.13;;;0.45;;
18146;SDS011;9199;48.832;9.182;2023-05-10T11:08:17;2.20;;;0.90;;
18146;SDS011;9199;48.832;9.182;2023-05-10T11:11:05;1.42;;;0.50;;
18146;SDS011;9199;48.832;9.182;2023-05-10T11:13:39;1.75;;;0.70;;
18146;SDS011;9199;48.832;9.182;2023-05-10T11:16:11;1.60;;;0.60;;
18146;SDS011;9199;48.832;9.182;2023-05-10T11:18:39;1.20;;;0.60;;
18146;SDS011;9199;48.832;9.182;2023-05-10T11:21:08;1.63;;;0.60;;
18146;SDS011;9199;48.832;9.182;2023-05-10T11:23:48;2.05;;;0.70;;
18146;SDS011;9199;48.832;9.182;2023-05-10T11:26:16;3.17;;;0.85;;
18146;SDS011;9199;48.832;9.182;2023-05-10T11:28:44;1.25;;;0.60;;
18146;SDS011;9199;48.832;9.182;2023-05-10T11:31:13;1.90;;;0.73;;
18146;SDS011;9199;48.832;9.182;2023-05-10T11:33:43;1.40;;;0.50;;
18146;SDS011;9199;48.832;9.182;2023-05-10T11:36:11;2.20;;;0.50;;
18146;SDS011;9199;48.832;9.182;2023-05-10T11:38:37;3.03;;;0.77;;
18146;SDS011;9199;48.832;9.182;2023-05-10T11:41:06;2.70;;;0.70;;
18146;SDS011;9199;48.832;9.182;2023-05-10T11:43:34;2.63;;;0.82;;
18146;SDS011;9199;48.832;9.182;2023-05-10T11:46:03;3.67;;;0.70;;
18146;SDS011;9199;48.832;9.182;2023-05-10T11:48:30;2.28;;;0.80;;
18146;SDS011;9199;48.832;9.182;2023-05-10T11:50:57;1.77;;;0.80;;
18146;SDS011;9199;48.832;9.182;2023-05-10T11:53:25;2.03;;;0.80;;
18146;SDS011;9199;48.832;9.182;2023-05-10T11:55:52;4.53;;;1.00;;
18146;SDS011;9199;48.832;9.182;2023-05-10T11:58:20;3.13;;;0.80;;
18146;SDS011;9199;48.832;9.182;2023-05-10T12:00:48;2.50;;;0.95;;
18146;SDS011;9199;48.832;9.182;2023-05-10T12:03:16;3.55;;;0.93;;
18146;SDS011;9199;48.832;9.182;2023-05-10T12:05:43;4.80;;;0.70;;
18146;SDS011;9199;48.832;9.182;2023-05-10T12:08:13;3.10;;;1.10;;
18146;SDS011;9199;48.832;9.182;2023-05-10T12:10:40;3.43;;;0.87;;
18146;SDS011;9199;48.832;9.182;2023-05-10T12:13:10;3.45;;;0.98;;
18146;SDS011;9199;48.832;9.182;2023-05-10T12:15:40;2.75;;;1.00;;
18146;SDS011;9199;48.832;9.182;2023-05-10T12:18:07;2.30;;;0.80;;
18146;SDS011;9199;48.832;9.182;2023-05-10T12:20:35;2.25;;;0.82;;
18146;SDS011;9199;48.832;9.182;2023-05-10T12:23:02;2.63;;;0.80;;
18146;SDS011;9199;48.832;9.182;2023-05-10T12:25:30;3.75;;;0.80;;
18146;SDS011;9199;48.832;9.182;2023-05-10T12:27:59;3.30;;;0.73;;
18146;SDS011;9199;48.832;9.182;2023-05-10T12:30:29;2.70;;;0.90;;
18146;SDS011;9199;48.832;9.182;2023-05-10T12:33:00;4.35;;;0.80;;
18146;SDS011;9199;48.832;9.182;2023-05-10T12:35:29;3.67;;;0.90;;
18146;SDS011;9199;48.832;9.182;2023-05-10T12:37:56;3.35;;;0.80;;
18146;SDS011;9199;48.832;9.182;2023-05-10T12:40:23;2.40;;;0.80;;
18146;SDS011;9199;48.832;9.182;2023-05-10T12:42:50;1.90;;;0.80;;
18146;SDS011;9199;48.832;9.182;2023-05-10T12:45:17;2.50;;;0.88;;
18146;SDS011;9199;48.832;9.182;2023-05-10T12:47:44;3.30;;;0.90;;
18146;SDS011;9199;48.832;9.182;2023-05-10T12:50:12;2.35;;;0.77;;
18146;SDS011;9199;48.832;9.182;2023-05-10T12:52:39;3.53;;;0.77;;
18146;SDS011;9199;48.832;9.182;2023-05-10T12:55:06;3.88;;;0.90;;
18146;SDS011;9199;48.832;9.182;2023-05-10T12:57:33;3.72;;;0.80;;
18146;SDS011;9199;48.832;9.182;2023-05-10T13:00:00;3.23;;;0.90;;
18146;SDS011;9199;48.832;9.182;2023-05-10T13:02:26;4.05;;;0.90;;
18146;SDS011;9199;48.832;9.182;2023-05-10T13:04:53;3.78;;;1.05;;
18146;SDS011;9199;48.832;9.182;2023-05-10T13:07:21;2.80;;;0.80;;
18146;SDS011;9199;48.832;9.182;2023-05-10T13:09:48;3.10;;;0.88;;
18146;SDS011;9199;48.832;9.182;2023-05-10T13:12:14;4.87;;;1.40;;
18146;SDS011;9199;48.832;9.182;2023-05-10T13:14:41;2.78;;;0.80;;
18146;SDS011;9199;48.832;9.182;2023-05-10T13:17:08;5.00;;;1.00;;
18146;SDS011;9199;48.832;9.182;2023-05-10T13:19:35;2.65;;;0.73;;
18146;SDS011;9199;48.832;9.182;2023-05-10T13:22:02;3.67;;;0.82;;
18146;SDS011;9199;48.832;9.182;2023-05-10T13:24:30;2.30;;;0.70;;
18146;SDS011;9199;48.832;9.182;2023-05-10T13:26:57;2.28;;;0.80;;
18146;SDS011;9199;48.832;9.182;2023-05-10T13:29:24;2.47;;;0.60;;
18146;SDS011;9199;48.832;9.182;2023-05-10T13:31:50;3.78;;;1.00;;
18146;SDS011;9199;48.832;9.182;2023-05-10T13:34:17;3.92;;;0.80;;
18146;SDS011;9199;48.832;9.182;2023-05-10T13:36:45;3.77;;;1.10;;
18146;SDS011;9199;48.832;9.182;2023-05-10T13:39:12;3.28;;;0.90;;
18146;SDS011;9199;48.832;9.182;2023-05-10T13:41:40;4.80;;;1.10;;
18146;SDS011;9199;48.832;9.182;2023-05-10T13:44:07;3.33;;;0.90;;
18146;SDS011;9199;48.832;9.182;2023-05-10T13:46:34;3.10;;;0.80;;
18146;SDS011;9199;48.832;9.182;2023-05-10T13:49:05;3.33;;;1.00;;
18146;SDS011;9199;48.832;9.182;2023-05-10T13:51:33;3.30;;;0.80;;
18146;SDS011;9199;48.832;9.182;2023-05-10T13:54:00;2.47;;;0.80;;
18146;SDS011;9199;48.832;9.182;2023-05-10T13:56:28;3.53;;;0.90;;
18146;SDS011;9199;48.832;9.182;2023-05-10T13:58:57;2.92;;;0.85;;
18146;SDS011;9199;48.832;9.182;2023-05-10T14:01:24;5.43;;;1.10;;
18146;SDS011;9199;48.832;9.182;2023-05-10T14:03:51;3.05;;;0.70;;
18146;SDS011;9199;48.832;9.182;2023-05-10T14:06:18;2.75;;;0.90;;
18146;SDS011;9199;48.832;9.182;2023-05-10T14:08:46;4.95;;;0.80;;
18146;SDS011;9199;48.832;9.182;2023-05-10T14:11:13;3.78;;;0.90;;
18146;SDS011;9199;48.832;9.182;2023-05-10T14:13:40;3.37;;;0.80;;
18146;SDS011;9199;48.832;9.182;2023-05-10T14:16:09;2.75;;;0.70;;
18146;SDS011;9199;48.832;9.182;2023-05-10T14:18:36;3.15;;;0.80;;
18146;SDS011;9199;48.832;9.182;2023-05-10T14:21:03;2.75;;;0.70;;
18146;SDS011;9199;48.832;9.182;2023-05-10T14:23:31;3.72;;;0.70;;
18146;SDS011;9199;48.832;9.182;2023-05-10T14:25:58;2.60;;;0.70;;
18146;SDS011;9199;48.832;9.182;2023-05-10T14:28:25;4.03;;;0.88;;
18146;SDS011;9199;48.832;9.182;2023-05-10T14:30:52;2.97;;;0.80;;
18146;SDS011;9199;48.832;9.182;2023-05-10T14:33:20;2.08;;;0.70;;
18146;SDS011;9199;48.832;9.182;2023-05-10T14:35:47;5.70;;;0.80;;
18146;SDS011;9199;48.832;9.182;2023-05-10T14:38:14;3.00;;;0.63;;
18146;SDS011;9199;48.832;9.182;2023-05-10T14:40:41;1.88;;;0.70;;
18146;SDS011;9199;48.832;9.182;2023-05-10T14:43:09;1.90;;;0.80;;
18146;SDS011;9199;48.832;9.182;2023-05-10T14:45:35;2.53;;;0.77;;
18146;SDS011;9199;48.832;9.182;2023-05-10T14:48:02;4.13;;;0.85;;
18146;SDS011;9199;48.832;9.182;2023-05-10T14:50:32;2.90;;;0.77;;
18146;SDS011;9199;48.832;9.182;2023-05-10T14:52:58;2.63;;;0.70;;
18146;SDS011;9199;48.832;9.182;2023-05-10T14:55:25;2.45;;;0.80;;
18146;SDS011;9199;48.832;9.182;2023-05-10T14:57:52;3.03;;;0.80;;
18146;SDS011;9199;48.832;9.182;2023-05-10T15:00:20;3.83;;;0.80;;
18146;SDS011;9199;48.832;9.182;2023-05-10T15:02:47;2.43;;;0.83;;
18146;SDS011;9199;48.832;9.182;2023-05-10T15:05:14;2.08;;;0.60;;
18146;SDS011;9199;48.832;9.182;2023-05-10T15:07:42;5.28;;;0.90;;
18146;SDS011;9199;48.832;9.182;2023-05-10T15:10:09;5.22;;;0.80;;